createdAt,value
2018-12-31T00:00:12.454Z,1028.65
2018-12-31T00:01:12.419Z,1028.66
2018-12-31T00:02:12.405Z,1028.70
2018-12-31T00:03:12.468Z,1028.71
2018-12-31T00:04:12.388Z,1028.66
2018-12-31T00:05:12.404Z,1028.70
2018-12-31T00:06:12.358Z,1028.77
2018-12-31T00:07:12.379Z,1028.70
2018-12-31T00:08:12.341Z,1028.79
2018-12-31T00:09:12.338Z,1028.66
2018-12-31T00:10:12.343Z,1028.73
2018-12-31T00:11:12.326Z,1028.75
2018-12-31T00:12:12.455Z,1028.76
2018-12-31T00:13:12.294Z,1028.78
2018-12-31T00:14:12.266Z,1028.75
2018-12-31T00:15:12.366Z,1028.74
2018-12-31T00:16:12.259Z,1028.70
2018-12-31T00:17:12.266Z,1028.71
2018-12-31T00:18:12.247Z,1028.70
2018-12-31T00:19:12.216Z,1028.70
2018-12-31T00:20:12.211Z,1028.67
2018-12-31T00:21:12.191Z,1028.72
2018-12-31T00:22:12.181Z,1028.68
2018-12-31T00:23:12.202Z,1028.70
2018-12-31T00:24:12.165Z,1028.68
2018-12-31T00:25:12.158Z,1028.74
2018-12-31T00:26:12.144Z,1028.71
2018-12-31T00:27:12.122Z,1028.72
2018-12-31T00:28:12.120Z,1028.71
2018-12-31T00:29:12.130Z,1028.75
2018-12-31T00:30:12.129Z,1028.76
2018-12-31T00:31:12.082Z,1028.79
2018-12-31T00:32:12.079Z,1028.74
2018-12-31T00:33:12.061Z,1028.72
2018-12-31T00:34:12.077Z,1028.73
2018-12-31T00:35:12.047Z,1028.73
2018-12-31T00:36:12.206Z,1028.71
2018-12-31T00:37:12.024Z,1028.74
2018-12-31T00:38:12.008Z,1028.77
2018-12-31T00:39:12.002Z,1028.76
2018-12-31T00:40:11.987Z,1028.76
2018-12-31T00:41:11.993Z,1028.81
2018-12-31T00:42:11.963Z,1028.77
2018-12-31T00:43:11.974Z,1028.77
2018-12-31T00:44:11.941Z,1028.75
2018-12-31T00:45:11.949Z,1028.68
2018-12-31T00:46:11.932Z,1028.75
2018-12-31T00:47:11.934Z,1028.79
2018-12-31T00:48:11.922Z,1028.80
2018-12-31T00:49:11.889Z,1028.79
2018-12-31T00:50:11.882Z,1028.86
2018-12-31T00:51:11.863Z,1028.80
2018-12-31T00:52:11.890Z,1028.78
2018-12-31T00:53:11.851Z,1028.82
2018-12-31T00:54:11.845Z,1028.78
2018-12-31T00:55:11.892Z,1028.79
2018-12-31T00:56:11.845Z,1028.81
2018-12-31T00:57:11.817Z,1028.78
2018-12-31T00:58:11.793Z,1028.75
2018-12-31T00:59:11.816Z,1028.76
2018-12-31T01:00:11.773Z,1028.83
2018-12-31T01:01:11.760Z,1028.85
2018-12-31T01:02:11.749Z,1028.82
2018-12-31T01:03:11.738Z,1028.85
2018-12-31T01:04:11.730Z,1028.86
2018-12-31T01:05:11.744Z,1028.90
2018-12-31T01:06:11.698Z,1028.88
2018-12-31T01:07:11.709Z,1028.91
2018-12-31T01:08:11.679Z,1028.86
2018-12-31T01:09:11.665Z,1028.86
2018-12-31T01:10:11.699Z,1028.76
2018-12-31T01:11:12.596Z,1028.73
2018-12-31T01:12:11.636Z,1028.74
2018-12-31T01:13:11.718Z,1028.83
2018-12-31T01:14:11.617Z,1028.82
2018-12-31T01:15:11.600Z,1028.76
2018-12-31T01:16:11.635Z,1028.85
2018-12-31T01:17:11.580Z,1028.83
2018-12-31T01:18:11.576Z,1028.83
2018-12-31T01:19:11.572Z,1028.86
2018-12-31T01:20:11.550Z,1028.82
2018-12-31T01:21:11.544Z,1028.87
2018-12-31T01:22:11.542Z,1028.86
2018-12-31T01:23:11.512Z,1028.86
2018-12-31T01:24:11.514Z,1028.79
2018-12-31T01:25:11.493Z,1028.85
2018-12-31T01:26:11.535Z,1028.84
2018-12-31T01:27:11.473Z,1028.85
2018-12-31T01:28:11.462Z,1028.81
2018-12-31T01:29:11.453Z,1028.75
2018-12-31T01:30:11.437Z,1028.78
2018-12-31T01:31:11.427Z,1028.79
2018-12-31T01:32:11.586Z,1028.80
2018-12-31T01:33:11.409Z,1028.80
2018-12-31T01:34:11.389Z,1028.83
2018-12-31T01:35:11.389Z,1028.89
2018-12-31T01:36:11.374Z,1028.92
2018-12-31T01:37:11.359Z,1028.91
2018-12-31T01:38:11.372Z,1028.89
2018-12-31T01:39:11.347Z,1028.91
2018-12-31T01:40:11.328Z,1028.94
2018-12-31T01:41:11.315Z,1028.93
2018-12-31T01:42:11.305Z,1028.92
2018-12-31T01:43:11.295Z,1028.92
2018-12-31T01:44:11.305Z,1028.96
2018-12-31T01:45:11.368Z,1028.89
2018-12-31T01:46:11.266Z,1028.87
2018-12-31T01:47:11.254Z,1028.95
2018-12-31T01:48:11.342Z,1029.02
2018-12-31T01:49:11.257Z,1028.97
2018-12-31T01:50:11.221Z,1029.02
2018-12-31T01:51:11.684Z,1028.99
2018-12-31T01:52:11.205Z,1028.92
2018-12-31T01:53:11.186Z,1028.89
2018-12-31T01:54:11.182Z,1028.86
2018-12-31T01:55:11.189Z,1028.91
2018-12-31T01:56:11.150Z,1028.86
2018-12-31T01:57:11.138Z,1028.88
2018-12-31T01:58:11.150Z,1028.95
2018-12-31T01:59:11.126Z,1028.89
2018-12-31T02:00:11.119Z,1028.92
2018-12-31T02:01:11.266Z,1028.94
2018-12-31T02:02:11.141Z,1028.96
2018-12-31T02:03:11.082Z,1028.93
2018-12-31T02:04:11.141Z,1028.91
2018-12-31T02:05:11.106Z,1028.95
2018-12-31T02:06:11.075Z,1028.99
2018-12-31T02:07:11.038Z,1028.97
2018-12-31T02:08:11.026Z,1029.00
2018-12-31T02:09:11.013Z,1028.95
2018-12-31T02:10:11.002Z,1029.04
2018-12-31T02:11:10.990Z,1029.00
2018-12-31T02:12:11.007Z,1029.01
2018-12-31T02:13:10.968Z,1028.96
2018-12-31T02:14:11.010Z,1028.93
2018-12-31T02:15:10.947Z,1028.91
2018-12-31T02:16:10.961Z,1028.91
2018-12-31T02:17:10.927Z,1028.90
2018-12-31T02:18:10.911Z,1028.96
2018-12-31T02:19:10.901Z,1028.92
2018-12-31T02:20:10.892Z,1028.90
2018-12-31T02:21:10.878Z,1028.91
2018-12-31T02:22:10.892Z,1028.84
2018-12-31T02:23:10.858Z,1028.81
2018-12-31T02:24:10.861Z,1028.83
2018-12-31T02:25:10.969Z,1028.92
2018-12-31T02:26:10.822Z,1028.94
2018-12-31T02:27:10.811Z,1028.94
2018-12-31T02:28:10.875Z,1029.00
2018-12-31T02:29:10.792Z,1028.98
2018-12-31T02:30:10.787Z,1029.06
2018-12-31T02:31:10.776Z,1029.07
2018-12-31T02:32:10.794Z,1028.94
2018-12-31T02:33:10.754Z,1028.95
2018-12-31T02:34:10.789Z,1028.96
2018-12-31T02:35:10.778Z,1028.95
2018-12-31T02:36:10.720Z,1028.98
2018-12-31T02:37:10.745Z,1028.93
2018-12-31T02:38:10.722Z,1028.90
2018-12-31T02:39:10.681Z,1028.85
2018-12-31T02:40:10.673Z,1028.89
2018-12-31T02:41:10.764Z,1028.88
2018-12-31T02:42:10.646Z,1028.87
2018-12-31T02:43:10.633Z,1028.94
2018-12-31T02:44:10.684Z,1028.89
2018-12-31T02:45:10.642Z,1029.00
2018-12-31T02:46:10.631Z,1028.92
2018-12-31T02:47:10.603Z,1028.89
2018-12-31T02:48:10.601Z,1028.93
2018-12-31T02:49:10.584Z,1028.87
2018-12-31T02:50:10.617Z,1028.91
2018-12-31T02:51:10.570Z,1028.94
2018-12-31T02:52:10.539Z,1028.98
2018-12-31T02:53:10.524Z,1028.89
2018-12-31T02:54:10.526Z,1028.92
2018-12-31T02:55:10.536Z,1028.86
2018-12-31T02:56:10.521Z,1028.84
2018-12-31T02:57:10.488Z,1028.86
2018-12-31T02:58:10.469Z,1028.90
2018-12-31T02:59:10.466Z,1028.87
2018-12-31T03:00:10.540Z,1028.91
2018-12-31T03:01:10.456Z,1028.82
2018-12-31T03:02:10.429Z,1028.81
2018-12-31T03:03:10.458Z,1028.78
2018-12-31T03:04:10.411Z,1028.80
2018-12-31T03:05:10.447Z,1028.77
2018-12-31T03:06:10.393Z,1028.72
2018-12-31T03:07:10.377Z,1028.73
2018-12-31T03:08:10.550Z,1028.74
2018-12-31T03:09:10.397Z,1028.74
2018-12-31T03:10:10.346Z,1028.78
2018-12-31T03:11:10.343Z,1028.74
2018-12-31T03:12:10.317Z,1028.76
2018-12-31T03:13:10.311Z,1028.78
2018-12-31T03:14:10.305Z,1028.75
2018-12-31T03:15:10.315Z,1028.70
2018-12-31T03:16:10.280Z,1028.75
2018-12-31T03:17:10.266Z,1028.77
2018-12-31T03:18:10.258Z,1028.78
2018-12-31T03:19:10.255Z,1028.79
2018-12-31T03:20:10.255Z,1028.78
2018-12-31T03:21:10.220Z,1028.83
2018-12-31T03:22:10.236Z,1028.77
2018-12-31T03:23:10.231Z,1028.76
2018-12-31T03:24:10.207Z,1028.70
2018-12-31T03:25:10.201Z,1028.67
2018-12-31T03:26:10.172Z,1028.63
2018-12-31T03:27:10.193Z,1028.58
2018-12-31T03:28:10.144Z,1028.60
2018-12-31T03:29:10.136Z,1028.64
2018-12-31T03:30:10.147Z,1028.65
2018-12-31T03:31:10.115Z,1028.58
2018-12-31T03:32:10.110Z,1028.61
2018-12-31T03:33:10.097Z,1028.62
2018-12-31T03:34:10.076Z,1028.64
2018-12-31T03:35:10.073Z,1028.64
2018-12-31T03:36:10.080Z,1028.63
2018-12-31T03:37:10.054Z,1028.57
2018-12-31T03:38:10.045Z,1028.65
2018-12-31T03:39:10.041Z,1028.62
2018-12-31T03:40:10.624Z,1028.63
2018-12-31T03:41:10.002Z,1028.63
2018-12-31T03:42:10.002Z,1028.70
2018-12-31T03:43:09.997Z,1028.66
2018-12-31T03:44:09.992Z,1028.66
2018-12-31T03:45:09.962Z,1028.59
2018-12-31T03:46:09.951Z,1028.57
2018-12-31T03:47:09.936Z,1028.58
2018-12-31T03:48:09.956Z,1028.66
2018-12-31T03:49:09.919Z,1028.60
2018-12-31T03:50:09.930Z,1028.63
2018-12-31T03:51:09.980Z,1028.64
2018-12-31T03:52:09.885Z,1028.66
2018-12-31T03:53:09.988Z,1028.57
2018-12-31T03:54:09.869Z,1028.61
2018-12-31T03:55:09.846Z,1028.51
2018-12-31T03:56:09.841Z,1028.55
2018-12-31T03:57:09.853Z,1028.58
2018-12-31T03:58:09.820Z,1028.66
2018-12-31T03:59:09.811Z,1028.56
2018-12-31T04:00:09.799Z,1028.53
2018-12-31T04:01:09.782Z,1028.60
2018-12-31T04:02:09.805Z,1028.64
2018-12-31T04:03:09.759Z,1028.63
2018-12-31T04:04:09.854Z,1028.64
2018-12-31T04:05:09.740Z,1028.64
2018-12-31T04:06:09.735Z,1028.63
2018-12-31T04:07:09.762Z,1028.67
2018-12-31T04:08:09.722Z,1028.69
2018-12-31T04:09:09.717Z,1028.67
2018-12-31T04:10:09.687Z,1028.59
2018-12-31T04:11:09.677Z,1028.67
2018-12-31T04:12:09.666Z,1028.65
2018-12-31T04:13:09.655Z,1028.60
2018-12-31T04:14:09.675Z,1028.61
2018-12-31T04:15:09.630Z,1028.60
2018-12-31T04:16:09.618Z,1028.67
2018-12-31T04:17:09.608Z,1028.65
2018-12-31T04:18:09.596Z,1028.61
2018-12-31T04:19:09.619Z,1028.59
2018-12-31T04:20:09.583Z,1028.57
2018-12-31T04:21:09.567Z,1028.57
2018-12-31T04:22:09.556Z,1028.57
2018-12-31T04:23:09.638Z,1028.56
2018-12-31T04:24:09.530Z,1028.61
2018-12-31T04:25:09.518Z,1028.56
2018-12-31T04:26:09.514Z,1028.59
2018-12-31T04:27:09.499Z,1028.59
2018-12-31T04:28:09.488Z,1028.64
2018-12-31T04:29:09.503Z,1028.64
2018-12-31T04:30:09.464Z,1028.60
2018-12-31T04:31:09.453Z,1028.60
2018-12-31T04:32:09.443Z,1028.58
2018-12-31T04:33:09.437Z,1028.49
2018-12-31T04:34:09.445Z,1028.60
2018-12-31T04:35:09.413Z,1028.54
2018-12-31T04:36:09.399Z,1028.48
2018-12-31T04:37:09.414Z,1028.55
2018-12-31T04:38:09.406Z,1028.54
2018-12-31T04:39:09.370Z,1028.59
2018-12-31T04:40:09.352Z,1028.46
2018-12-31T04:41:09.355Z,1028.46
2018-12-31T04:42:09.331Z,1028.48
2018-12-31T04:43:09.323Z,1028.46
2018-12-31T04:44:09.443Z,1028.44
2018-12-31T04:45:09.332Z,1028.50
2018-12-31T04:46:09.291Z,1028.49
2018-12-31T04:47:10.136Z,1028.42
2018-12-31T04:48:09.268Z,1028.42
2018-12-31T04:49:09.258Z,1028.46
2018-12-31T04:50:09.272Z,1028.43
2018-12-31T04:51:09.257Z,1028.51
2018-12-31T04:52:09.233Z,1028.43
2018-12-31T04:53:09.214Z,1028.50
2018-12-31T04:54:09.211Z,1028.46
2018-12-31T04:55:09.223Z,1028.49
2018-12-31T04:56:09.177Z,1028.42
2018-12-31T04:57:09.189Z,1028.41
2018-12-31T04:58:09.157Z,1028.45
2018-12-31T04:59:09.148Z,1028.50
2018-12-31T05:00:10.141Z,1028.45
2018-12-31T05:01:09.155Z,1028.46
2018-12-31T05:02:09.116Z,1028.50
2018-12-31T05:03:09.178Z,1028.49
2018-12-31T05:04:09.093Z,1028.50
2018-12-31T05:05:09.152Z,1028.51
2018-12-31T05:06:09.095Z,1028.55
2018-12-31T05:07:09.063Z,1028.46
2018-12-31T05:08:09.049Z,1028.54
2018-12-31T05:09:09.041Z,1028.54
2018-12-31T05:10:09.026Z,1028.58
2018-12-31T05:11:09.055Z,1028.57
2018-12-31T05:12:09.005Z,1028.57
2018-12-31T05:13:08.997Z,1028.62
2018-12-31T05:14:08.985Z,1028.62
2018-12-31T05:15:08.991Z,1028.66
2018-12-31T05:16:09.064Z,1028.73
2018-12-31T05:17:08.976Z,1028.71
2018-12-31T05:18:08.944Z,1028.73
2018-12-31T05:19:08.996Z,1028.71
2018-12-31T05:20:08.916Z,1028.69
2018-12-31T05:21:08.907Z,1028.67
2018-12-31T05:22:08.910Z,1028.64
2018-12-31T05:23:08.913Z,1028.66
2018-12-31T05:24:08.877Z,1028.62
2018-12-31T05:25:08.869Z,1028.69
2018-12-31T05:26:08.852Z,1028.68
2018-12-31T05:27:08.860Z,1028.66
2018-12-31T05:28:08.866Z,1028.68
2018-12-31T05:29:08.825Z,1028.61
2018-12-31T05:30:08.816Z,1028.67
2018-12-31T05:31:08.804Z,1028.69
2018-12-31T05:32:08.806Z,1028.68
2018-12-31T05:33:08.815Z,1028.68
2018-12-31T05:34:08.765Z,1028.69
2018-12-31T05:35:08.753Z,1028.68
2018-12-31T05:36:08.751Z,1028.71
2018-12-31T05:37:08.729Z,1028.69
2018-12-31T05:38:08.727Z,1028.65
2018-12-31T05:39:08.735Z,1028.67
2018-12-31T05:40:08.838Z,1028.73
2018-12-31T05:41:08.693Z,1028.77
2018-12-31T05:42:08.676Z,1028.79
2018-12-31T05:43:08.720Z,1028.77
2018-12-31T05:44:08.682Z,1028.80
2018-12-31T05:45:08.650Z,1028.77
2018-12-31T05:46:08.640Z,1028.75
2018-12-31T05:47:08.622Z,1028.75
2018-12-31T05:48:08.605Z,1028.77
2018-12-31T05:49:08.669Z,1028.74
2018-12-31T05:50:08.619Z,1028.76
2018-12-31T05:51:08.612Z,1028.74
2018-12-31T05:52:08.564Z,1028.77
2018-12-31T05:53:08.553Z,1028.78
2018-12-31T05:54:08.542Z,1028.79
2018-12-31T05:55:08.528Z,1028.84
2018-12-31T05:56:08.625Z,1028.84
2018-12-31T05:57:08.509Z,1028.87
2018-12-31T05:58:08.499Z,1028.93
2018-12-31T05:59:08.530Z,1028.90
2018-12-31T06:00:08.476Z,1028.90
2018-12-31T06:01:08.464Z,1028.88
2018-12-31T06:02:08.479Z,1028.88
2018-12-31T06:03:08.438Z,1028.89
2018-12-31T06:04:08.445Z,1028.96
2018-12-31T06:05:08.418Z,1028.94
2018-12-31T06:06:08.406Z,1028.93
2018-12-31T06:07:08.400Z,1028.98
2018-12-31T06:08:08.410Z,1029.03
2018-12-31T06:09:08.372Z,1028.97
2018-12-31T06:10:08.363Z,1028.93
2018-12-31T06:11:08.364Z,1028.95
2018-12-31T06:12:08.339Z,1028.96
2018-12-31T06:13:08.359Z,1029.01
2018-12-31T06:14:08.319Z,1028.98
2018-12-31T06:15:08.324Z,1029.06
2018-12-31T06:16:08.301Z,1029.05
2018-12-31T06:17:08.282Z,1028.94
2018-12-31T06:18:08.282Z,1029.02
2018-12-31T06:19:08.306Z,1029.01
2018-12-31T06:20:08.298Z,1028.99
2018-12-31T06:21:08.250Z,1029.04
2018-12-31T06:22:08.231Z,1028.99
2018-12-31T06:23:08.221Z,1029.01
2018-12-31T06:24:08.222Z,1029.07
2018-12-31T06:25:08.219Z,1029.05
2018-12-31T06:26:08.192Z,1029.08
2018-12-31T06:27:08.172Z,1029.09
2018-12-31T06:28:08.166Z,1029.06
2018-12-31T06:29:08.182Z,1029.11
2018-12-31T06:30:08.180Z,1029.17
2018-12-31T06:31:08.162Z,1029.14
2018-12-31T06:32:08.146Z,1029.11
2018-12-31T06:33:08.107Z,1029.09
2018-12-31T06:34:08.101Z,1029.11
2018-12-31T06:35:08.093Z,1029.10
2018-12-31T06:36:08.203Z,1029.13
2018-12-31T06:37:08.096Z,1029.10
2018-12-31T06:38:08.058Z,1029.11
2018-12-31T06:39:08.096Z,1029.09
2018-12-31T06:40:08.027Z,1029.09
2018-12-31T06:41:08.020Z,1029.02
2018-12-31T06:42:08.037Z,1029.07
2018-12-31T06:43:08.005Z,1029.01
2018-12-31T06:44:07.988Z,1029.01
2018-12-31T06:45:07.973Z,1028.98
2018-12-31T06:46:07.975Z,1028.94
2018-12-31T06:47:07.963Z,1029.00
2018-12-31T06:48:07.974Z,1028.95
2018-12-31T06:49:07.942Z,1028.86
2018-12-31T06:50:07.917Z,1028.92
2018-12-31T06:51:07.913Z,1028.91
2018-12-31T06:52:08.119Z,1028.90
2018-12-31T06:53:07.893Z,1028.94
2018-12-31T06:54:07.902Z,1029.02
2018-12-31T06:55:07.961Z,1029.00
2018-12-31T06:56:07.852Z,1029.01
2018-12-31T06:57:07.842Z,1029.07
2018-12-31T06:58:07.830Z,1029.08
2018-12-31T06:59:07.842Z,1029.14
2018-12-31T07:00:07.821Z,1029.14
2018-12-31T07:01:07.795Z,1029.09
2018-12-31T07:02:07.815Z,1029.11
2018-12-31T07:03:07.772Z,1029.14
2018-12-31T07:04:07.761Z,1029.20
2018-12-31T07:05:07.752Z,1029.22
2018-12-31T07:06:07.741Z,1029.24
2018-12-31T07:07:07.750Z,1029.22
2018-12-31T07:08:07.720Z,1029.24
2018-12-31T07:09:07.763Z,1029.33
2018-12-31T07:10:07.698Z,1029.35
2018-12-31T07:11:07.689Z,1029.35
2018-12-31T07:12:07.675Z,1029.34
2018-12-31T07:13:07.675Z,1029.37
2018-12-31T07:14:07.659Z,1029.38
2018-12-31T07:15:07.669Z,1029.43
2018-12-31T07:16:07.800Z,1029.49
2018-12-31T07:17:07.641Z,1029.47
2018-12-31T07:18:07.622Z,1029.50
2018-12-31T07:19:07.653Z,1029.51
2018-12-31T07:20:07.591Z,1029.55
2018-12-31T07:21:07.604Z,1029.56
2018-12-31T07:22:07.591Z,1029.60
2018-12-31T07:23:07.556Z,1029.61
2018-12-31T07:24:07.576Z,1029.57
2018-12-31T07:25:07.544Z,1029.61
2018-12-31T07:26:07.549Z,1029.64
2018-12-31T07:27:07.508Z,1029.59
2018-12-31T07:28:07.502Z,1029.63
2018-12-31T07:29:07.510Z,1029.63
2018-12-31T07:30:07.478Z,1029.62
2018-12-31T07:31:07.463Z,1029.63
2018-12-31T07:32:07.625Z,1029.64
2018-12-31T07:33:07.446Z,1029.64
2018-12-31T07:34:07.451Z,1029.67
2018-12-31T07:35:07.442Z,1029.67
2018-12-31T07:36:07.437Z,1029.66
2018-12-31T07:37:07.401Z,1029.64
2018-12-31T07:38:07.392Z,1029.66
2018-12-31T07:39:07.387Z,1029.65
2018-12-31T07:40:07.365Z,1029.66
2018-12-31T07:41:07.356Z,1029.68
2018-12-31T07:42:07.364Z,1029.68
2018-12-31T07:43:07.333Z,1029.71
2018-12-31T07:44:07.321Z,1029.66
2018-12-31T07:45:07.314Z,1029.69
2018-12-31T07:46:07.302Z,1029.73
2018-12-31T07:47:07.288Z,1029.74
2018-12-31T07:48:07.343Z,1029.82
2018-12-31T07:49:07.294Z,1029.81
2018-12-31T07:50:07.254Z,1029.74
2018-12-31T07:51:07.319Z,1029.77
2018-12-31T07:52:07.255Z,1029.73
2018-12-31T07:53:07.258Z,1029.81
2018-12-31T07:54:07.212Z,1029.84
2018-12-31T07:55:07.222Z,1029.83
2018-12-31T07:56:07.203Z,1029.80
2018-12-31T07:57:07.183Z,1029.94
2018-12-31T07:58:07.174Z,1029.88
2018-12-31T07:59:07.217Z,1029.99
2018-12-31T08:00:07.145Z,1029.85
2018-12-31T08:01:07.134Z,1029.89
2018-12-31T08:02:07.134Z,1029.91
2018-12-31T08:03:07.115Z,1029.94
2018-12-31T08:04:07.123Z,1029.94
2018-12-31T08:05:07.096Z,1029.95
2018-12-31T08:06:07.080Z,1029.93
2018-12-31T08:07:07.100Z,1029.91
2018-12-31T08:08:07.061Z,1029.94
2018-12-31T08:09:07.055Z,1029.88
2018-12-31T08:10:07.060Z,1029.90
2018-12-31T08:11:07.028Z,1029.99
2018-12-31T08:12:07.020Z,1029.98
2018-12-31T08:13:07.001Z,1029.99
2018-12-31T08:14:07.022Z,1030.03
2018-12-31T08:15:07.106Z,1030.03
2018-12-31T08:16:07.000Z,1030.03
2018-12-31T08:17:06.965Z,1030.03
2018-12-31T08:18:06.966Z,1030.06
2018-12-31T08:19:06.938Z,1030.07
2018-12-31T08:20:06.975Z,1030.05
2018-12-31T08:21:06.922Z,1030.11
2018-12-31T08:22:06.945Z,1030.16
2018-12-31T08:23:06.895Z,1030.10
2018-12-31T08:24:06.887Z,1030.17
2018-12-31T08:25:06.870Z,1030.09
2018-12-31T08:26:06.864Z,1030.08
2018-12-31T08:27:06.850Z,1030.08
2018-12-31T08:28:06.869Z,1030.06
2018-12-31T08:29:06.829Z,1030.13
2018-12-31T08:30:06.820Z,1030.07
2018-12-31T08:31:06.955Z,1030.13
2018-12-31T08:32:06.799Z,1030.09
2018-12-31T08:33:06.807Z,1030.15
2018-12-31T08:34:06.811Z,1030.04
2018-12-31T08:35:06.766Z,1030.14
2018-12-31T08:36:06.758Z,1030.09
2018-12-31T08:37:06.745Z,1030.15
2018-12-31T08:38:06.772Z,1030.09
2018-12-31T08:39:06.721Z,1030.07
2018-12-31T08:40:06.717Z,1030.09
2018-12-31T08:41:06.716Z,1030.10
2018-12-31T08:42:06.688Z,1030.11
2018-12-31T08:43:06.708Z,1030.13
2018-12-31T08:44:06.688Z,1030.12
2018-12-31T08:45:06.659Z,1030.08
2018-12-31T08:46:06.656Z,1030.09
2018-12-31T08:47:06.642Z,1030.15
2018-12-31T08:48:06.631Z,1030.15
2018-12-31T08:49:06.657Z,1030.20
2018-12-31T08:50:06.597Z,1030.20
2018-12-31T08:51:06.589Z,1030.16
2018-12-31T08:52:06.577Z,1030.14
2018-12-31T08:53:06.567Z,1030.21
2018-12-31T08:54:06.637Z,1030.18
2018-12-31T08:55:06.659Z,1030.29
2018-12-31T08:56:06.538Z,1030.16
2018-12-31T08:57:06.523Z,1030.21
2018-12-31T08:58:06.544Z,1030.17
2018-12-31T08:59:06.512Z,1030.19
2018-12-31T09:00:06.516Z,1030.15
2018-12-31T09:01:06.481Z,1030.22
2018-12-31T09:02:06.563Z,1030.15
2018-12-31T09:03:06.470Z,1030.16
2018-12-31T09:04:06.453Z,1030.14
2018-12-31T09:05:06.455Z,1030.15
2018-12-31T09:06:06.478Z,1030.16
2018-12-31T09:07:06.415Z,1030.16
2018-12-31T09:08:06.417Z,1030.18
2018-12-31T09:09:06.392Z,1030.21
2018-12-31T09:10:06.385Z,1030.18
2018-12-31T09:11:06.390Z,1030.11
2018-12-31T09:12:06.387Z,1030.10
2018-12-31T09:13:06.353Z,1030.13
2018-12-31T09:14:06.379Z,1030.15
2018-12-31T09:15:06.326Z,1030.12
2018-12-31T09:16:06.327Z,1030.09
2018-12-31T09:17:06.386Z,1030.15
2018-12-31T09:18:06.298Z,1030.13
2018-12-31T09:19:06.293Z,1030.08
2018-12-31T09:20:06.293Z,1030.08
2018-12-31T09:21:06.266Z,1030.16
2018-12-31T09:22:06.254Z,1030.08
2018-12-31T09:23:06.765Z,1030.13
2018-12-31T09:24:06.239Z,1030.09
2018-12-31T09:25:06.228Z,1030.07
2018-12-31T09:26:06.236Z,1030.05
2018-12-31T09:27:06.245Z,1030.11
2018-12-31T09:28:06.183Z,1030.09
2018-12-31T09:29:06.221Z,1030.13
2018-12-31T09:30:06.171Z,1030.11
2018-12-31T09:31:07.801Z,1030.15
2018-12-31T09:32:06.142Z,1030.13
2018-12-31T09:33:06.129Z,1030.14
2018-12-31T09:34:06.143Z,1030.14
2018-12-31T09:35:06.210Z,1030.16
2018-12-31T09:36:06.105Z,1030.18
2018-12-31T09:37:06.105Z,1030.16
2018-12-31T09:38:06.094Z,1030.20
2018-12-31T09:39:06.062Z,1030.24
2018-12-31T09:40:06.084Z,1030.21
2018-12-31T09:41:06.038Z,1030.21
2018-12-31T09:42:06.043Z,1030.20
2018-12-31T09:43:06.022Z,1030.19
2018-12-31T09:44:06.005Z,1030.14
2018-12-31T09:45:06.012Z,1030.19
2018-12-31T09:46:06.016Z,1030.18
2018-12-31T09:47:05.986Z,1030.16
2018-12-31T09:48:05.995Z,1030.15
2018-12-31T09:49:05.960Z,1030.17
2018-12-31T09:50:05.956Z,1030.21
2018-12-31T09:51:06.054Z,1030.23
2018-12-31T09:52:05.915Z,1030.25
2018-12-31T09:53:05.911Z,1030.24
2018-12-31T09:54:05.971Z,1030.31
2018-12-31T09:55:05.885Z,1030.27
2018-12-31T09:56:05.877Z,1030.24
2018-12-31T09:57:05.875Z,1030.22
2018-12-31T09:58:05.904Z,1030.26
2018-12-31T09:59:05.851Z,1030.24
2018-12-31T10:00:05.837Z,1030.19
2018-12-31T10:01:05.822Z,1030.28
2018-12-31T10:02:05.811Z,1030.21
2018-12-31T10:03:05.800Z,1030.24
2018-12-31T10:04:05.827Z,1030.19
2018-12-31T10:05:05.803Z,1030.28
2018-12-31T10:06:05.770Z,1030.22
2018-12-31T10:07:05.760Z,1030.32
2018-12-31T10:08:05.768Z,1030.23
2018-12-31T10:09:05.749Z,1030.29
2018-12-31T10:10:05.756Z,1030.32
2018-12-31T10:11:05.708Z,1030.28
2018-12-31T10:12:05.698Z,1030.35
2018-12-31T10:13:05.689Z,1030.35
2018-12-31T10:14:05.678Z,1030.23
2018-12-31T10:15:05.687Z,1030.24
2018-12-31T10:16:05.695Z,1030.23
2018-12-31T10:17:05.657Z,1030.21
2018-12-31T10:18:05.637Z,1030.21
2018-12-31T10:19:05.628Z,1030.18
2018-12-31T10:20:05.610Z,1030.25
2018-12-31T10:21:05.651Z,1030.22
2018-12-31T10:22:05.597Z,1030.23
2018-12-31T10:23:05.575Z,1030.26
2018-12-31T10:24:05.595Z,1030.20
2018-12-31T10:25:05.564Z,1030.18
2018-12-31T10:26:05.545Z,1030.28
2018-12-31T10:27:05.575Z,1030.29
2018-12-31T10:28:05.526Z,1030.27
2018-12-31T10:29:05.517Z,1030.28
2018-12-31T10:30:05.502Z,1030.29
2018-12-31T10:31:05.682Z,1030.25
2018-12-31T10:32:05.519Z,1030.29
2018-12-31T10:33:05.478Z,1030.30
2018-12-31T10:34:05.488Z,1030.34
2018-12-31T10:35:05.492Z,1030.29
2018-12-31T10:36:05.444Z,1030.31
2018-12-31T10:37:05.429Z,1030.30
2018-12-31T10:38:05.454Z,1030.33
2018-12-31T10:39:05.415Z,1030.29
2018-12-31T10:40:05.394Z,1030.33
2018-12-31T10:41:05.386Z,1030.31
2018-12-31T10:42:05.366Z,1030.36
2018-12-31T10:43:05.384Z,1030.34
2018-12-31T10:44:05.358Z,1030.37
2018-12-31T10:45:05.365Z,1030.36
2018-12-31T10:46:05.323Z,1030.29
2018-12-31T10:47:05.345Z,1030.29
2018-12-31T10:48:05.303Z,1030.27
2018-12-31T10:49:05.296Z,1030.25
2018-12-31T10:50:05.286Z,1030.30
2018-12-31T10:51:05.306Z,1030.31
2018-12-31T10:52:05.257Z,1030.32
2018-12-31T10:53:05.370Z,1030.34
2018-12-31T10:54:05.278Z,1030.34
2018-12-31T10:55:05.229Z,1030.29
2018-12-31T10:56:05.223Z,1030.23
2018-12-31T10:57:05.215Z,1030.26
2018-12-31T10:58:05.202Z,1030.25
2018-12-31T10:59:05.189Z,1030.26
2018-12-31T11:00:05.190Z,1030.24
2018-12-31T11:01:05.167Z,1030.28
2018-12-31T11:02:05.145Z,1030.20
2018-12-31T11:03:05.140Z,1030.15
2018-12-31T11:04:05.131Z,1030.16
2018-12-31T11:05:05.150Z,1030.09
2018-12-31T11:06:05.105Z,1030.04
2018-12-31T11:07:05.100Z,1030.11
2018-12-31T11:08:05.098Z,1030.06
2018-12-31T11:09:05.069Z,1030.08
2018-12-31T11:10:05.072Z,1030.05
2018-12-31T11:11:05.091Z,1030.05
2018-12-31T11:12:05.039Z,1030.10
2018-12-31T11:13:05.025Z,1030.04
2018-12-31T11:14:05.036Z,1030.02
2018-12-31T11:15:05.007Z,1030.03
2018-12-31T11:16:04.996Z,1030.03
2018-12-31T11:17:05.067Z,1030.08
2018-12-31T11:18:04.971Z,1030.05
2018-12-31T11:19:04.989Z,1030.05
2018-12-31T11:20:04.969Z,1030.07
2018-12-31T11:21:04.941Z,1030.11
2018-12-31T11:22:04.949Z,1030.15
2018-12-31T11:23:04.917Z,1030.10
2018-12-31T11:24:04.913Z,1030.09
2018-12-31T11:25:04.947Z,1030.01
2018-12-31T11:26:04.898Z,1030.03
2018-12-31T11:27:04.883Z,1030.01
2018-12-31T11:28:04.860Z,1030.02
2018-12-31T11:29:04.879Z,1030.06
2018-12-31T11:30:04.834Z,1029.93
2018-12-31T11:31:04.851Z,1029.90
2018-12-31T11:32:04.815Z,1029.93
2018-12-31T11:33:04.916Z,1029.89
2018-12-31T11:34:04.801Z,1029.92
2018-12-31T11:35:04.787Z,1029.98
2018-12-31T11:36:04.827Z,1029.94
2018-12-31T11:37:04.766Z,1029.91
2018-12-31T11:38:04.768Z,1029.90
2018-12-31T11:39:04.734Z,1029.88
2018-12-31T11:40:04.729Z,1029.89
2018-12-31T11:41:04.729Z,1029.90
2018-12-31T11:42:04.730Z,1029.85
2018-12-31T11:43:04.698Z,1029.77
2018-12-31T11:44:04.723Z,1029.80
2018-12-31T11:45:04.669Z,1029.81
2018-12-31T11:46:04.668Z,1029.82
2018-12-31T11:47:04.654Z,1029.77
2018-12-31T11:48:04.665Z,1029.74
2018-12-31T11:49:04.640Z,1029.72
2018-12-31T11:50:04.618Z,1029.75
2018-12-31T11:51:04.610Z,1029.79
2018-12-31T11:52:04.616Z,1029.76
2018-12-31T11:53:04.585Z,1029.80
2018-12-31T11:54:05.227Z,1029.74
2018-12-31T11:55:04.566Z,1029.70
2018-12-31T11:56:04.578Z,1029.72
2018-12-31T11:57:04.638Z,1029.73
2018-12-31T11:58:04.545Z,1029.71
2018-12-31T11:59:04.519Z,1029.72
2018-12-31T12:00:04.504Z,1029.71
2018-12-31T12:01:04.506Z,1029.68
2018-12-31T12:02:04.489Z,1029.70
2018-12-31T12:03:04.507Z,1029.72
2018-12-31T12:04:04.480Z,1029.73
2018-12-31T12:05:04.471Z,1029.73